Time;durP1;ratioP1;P1;durP2;ratioP2;P2;SDS_P1;SDS_P2;PMS_P1;PMS_P2;Temp;Humidity;BMP_temperature;BMP_pressure;BME280_temperature;BME280_humidity;BME280_pressure;Samples;Min_cycle;Max_cycle;Signal;HPM_P1;HPM_P2
2020/12/14 00:04:10;;;;;;;8.87;2.67;;;;;;;;;;10302846;28;20750;-67
2020/12/14 00:09:12;;;;;;;11.60;2.70;;;;;;;;;;10291256;28;20221;-67
2020/12/14 00:14:14;;;;;;;12.67;2.67;;;;;;;;;;10298112;28;20237;-67
2020/12/14 00:19:16;;;;;;;8.37;2.23;;;;;;;;;;10298685;28;20214;-67
2020/12/14 00:24:19;;;;;;;6.87;2.30;;;;;;;;;;10301083;28;20221;-67
2020/12/14 00:29:21;;;;;;;10.77;2.40;;;;;;;;;;10311995;28;20229;-68
2020/12/14 00:34:23;;;;;;;19.03;2.50;;;;;;;;;;10296361;28;20234;-68
2020/12/14 00:39:37;;;;;;;8.90;2.57;;;;;;;;;;10313843;28;20271;-67
2020/12/14 00:44:39;;;;;;;7.70;2.10;;;;;;;;;;10297164;28;20229;-70
2020/12/14 00:49:41;;;;;;;10.20;2.87;;;;;;;;;;10306199;28;20221;-68
2020/12/14 00:54:43;;;;;;;8.00;2.20;;;;;;;;;;10302245;28;20747;-68
2020/12/14 00:59:45;;;;;;;7.90;2.23;;;;;;;;;;10304756;28;20210;-68
2020/12/14 01:04:47;;;;;;;5.97;2.17;;;;;;;;;;10736943;22;20237;-70
2020/12/14 01:09:50;;;;;;;8.60;2.10;;;;;;;;;;10333957;28;20216;-70
2020/12/14 01:14:51;;;;;;;7.70;2.00;;;;;;;;;;10335326;28;20240;-71
2020/12/14 01:19:53;;;;;;;8.17;2.10;;;;;;;;;;10335129;28;20213;-71
2020/12/14 01:24:56;;;;;;;6.10;2.00;;;;;;;;;;10331203;28;20216;-72
2020/12/14 01:29:58;;;;;;;5.93;2.20;;;;;;;;;;10335222;28;20224;-73
2020/12/14 01:34:59;;;;;;;8.63;2.20;;;;;;;;;;10330679;28;20248;-73
2020/12/14 01:40:02;;;;;;;7.37;1.70;;;;;;;;;;10346043;28;20222;-72
2020/12/14 01:45:04;;;;;;;4.93;2.07;;;;;;;;;;10337759;28;20209;-72
2020/12/14 01:50:09;;;;;;;7.70;2.67;;;;;;;;;;10335504;28;20213;-73
2020/12/14 01:55:14;;;;;;;7.20;2.67;;;;;;;;;;10337676;28;20663;-68
2020/12/14 02:00:16;;;;;;;6.13;2.10;;;;;;;;;;10346324;28;20220;-68
2020/12/14 02:05:18;;;;;;;7.50;2.17;;;;;;;;;;10329101;28;20238;-68
2020/12/14 02:10:20;;;;;;;7.67;2.40;;;;;;;;;;10335088;28;20220;-68
2020/12/14 02:15:22;;;;;;;8.43;2.30;;;;;;;;;;10332259;28;20240;-67
2020/12/14 02:20:24;;;;;;;5.93;2.70;;;;;;;;;;10331232;28;20216;-67
2020/12/14 02:25:26;;;;;;;8.23;2.67;;;;;;;;;;10325068;28;20209;-68
2020/12/14 02:30:28;;;;;;;7.00;2.73;;;;;;;;;;10347081;28;20217;-68
2020/12/14 02:35:30;;;;;;;5.17;2.83;;;;;;;;;;10325491;28;20606;-68
2020/12/14 02:40:33;;;;;;;7.83;2.93;;;;;;;;;;10323657;28;21578;-67
2020/12/14 02:45:37;;;;;;;4.23;2.57;;;;;;;;;;10325161;28;20596;-68
2020/12/14 02:50:38;;;;;;;4.63;2.43;;;;;;;;;;10327255;28;20216;-67
2020/12/14 02:55:41;;;;;;;10.13;3.07;;;;;;;;;;10325732;28;20248;-68
2020/12/14 03:00:43;;;;;;;8.97;3.30;;;;;;;;;;10333139;28;20577;-68
2020/12/14 03:05:45;;;;;;;7.67;3.13;;;;;;;;;;10322358;28;20272;-68
2020/12/14 03:10:50;;;;;;;7.77;3.30;;;;;;;;;;10325199;28;20225;-68
2020/12/14 03:15:52;;;;;;;10.33;3.37;;;;;;;;;;10330659;28;20670;-68
2020/12/14 03:20:54;;;;;;;8.87;3.73;;;;;;;;;;10323311;28;20213;-68
2020/12/14 03:25:57;;;;;;;10.30;4.03;;;;;;;;;;10330839;28;20227;-69
2020/12/14 03:30:59;;;;;;;8.67;4.23;;;;;;;;;;10328870;28;20221;-68
2020/12/14 03:36:01;;;;;;;12.07;4.30;;;;;;;;;;10338564;28;20659;-68
2020/12/14 03:41:04;;;;;;;8.63;4.90;;;;;;;;;;10317384;28;20625;-68
2020/12/14 03:46:06;;;;;;;10.80;4.70;;;;;;;;;;10320349;28;20671;-68
2020/12/14 03:51:08;;;;;;;9.20;4.67;;;;;;;;;;10322306;28;20691;-68
2020/12/14 03:56:11;;;;;;;10.47;5.13;;;;;;;;;;10318877;28;20577;-67
2020/12/14 04:01:13;;;;;;;9.00;5.20;;;;;;;;;;10325755;28;20629;-68
2020/12/14 04:06:18;;;;;;;11.23;5.93;;;;;;;;;;10322077;28;20247;-67
2020/12/14 04:11:21;;;;;;;11.07;5.80;;;;;;;;;;10320806;28;20217;-68
2020/12/14 04:16:24;;;;;;;9.47;5.53;;;;;;;;;;10324494;28;20218;-67
2020/12/14 04:21:26;;;;;;;11.27;5.73;;;;;;;;;;10316055;28;20281;-66
2020/12/14 04:26:29;;;;;;;11.87;6.43;;;;;;;;;;10324465;28;20216;-67
2020/12/14 04:31:30;;;;;;;10.17;6.07;;;;;;;;;;10332196;28;20252;-67
2020/12/14 04:36:32;;;;;;;14.57;6.17;;;;;;;;;;10339450;28;20267;-67
2020/12/14 04:41:35;;;;;;;11.43;6.43;;;;;;;;;;10330580;28;20214;-67
2020/12/14 04:46:37;;;;;;;12.17;7.10;;;;;;;;;;10340206;28;20252;-67
2020/12/14 04:51:39;;;;;;;10.53;7.30;;;;;;;;;;10320833;28;20572;-68
2020/12/14 04:56:42;;;;;;;11.90;6.77;;;;;;;;;;10335617;28;20216;-66
2020/12/14 05:01:44;;;;;;;10.30;6.47;;;;;;;;;;10333332;28;20243;-66
2020/12/14 05:06:48;;;;;;;11.77;6.70;;;;;;;;;;10328335;28;20631;-66
2020/12/14 05:11:51;;;;;;;12.10;6.90;;;;;;;;;;10328428;28;20236;-66
2020/12/14 05:16:54;;;;;;;11.37;6.40;;;;;;;;;;10347979;28;20225;-67
2020/12/14 05:21:58;;;;;;;12.47;6.33;;;;;;;;;;10325082;28;20744;-67
2020/12/14 05:27:01;;;;;;;12.70;6.63;;;;;;;;;;10324210;28;20213;-67
2020/12/14 05:32:09;;;;;;;11.37;6.00;;;;;;;;;;10331693;28;20245;-66
2020/12/14 05:37:12;;;;;;;11.93;6.03;;;;;;;;;;10327278;28;20234;-66
2020/12/14 05:42:17;;;;;;;11.47;6.03;;;;;;;;;;10330518;28;20659;-67
2020/12/14 05:47:27;;;;;;;14.70;6.20;;;;;;;;;;10329169;28;20306;-67
2020/12/14 05:52:31;;;;;;;9.63;5.77;;;;;;;;;;10326247;28;20241;-67
2020/12/14 05:57:34;;;;;;;11.67;5.17;;;;;;;;;;10339666;28;20219;-65
2020/12/14 06:02:37;;;;;;;9.07;5.23;;;;;;;;;;10320057;28;20248;-66
2020/12/14 06:07:39;;;;;;;9.50;5.50;;;;;;;;;;10329473;28;20874;-66
2020/12/14 06:12:44;;;;;;;7.50;5.00;;;;;;;;;;10313542;28;20238;-66
2020/12/14 06:17:46;;;;;;;8.83;5.10;;;;;;;;;;10327897;28;20228;-68
2020/12/14 06:22:51;;;;;;;9.77;5.97;;;;;;;;;;10324747;28;20229;-66
2020/12/14 06:27:54;;;;;;;11.13;5.90;;;;;;;;;;10319459;28;20217;-65
2020/12/14 06:32:58;;;;;;;8.13;6.00;;;;;;;;;;10323658;28;20237;-65
2020/12/14 06:37:59;;;;;;;13.30;5.70;;;;;;;;;;10327328;28;20217;-66
2020/12/14 06:43:02;;;;;;;12.30;5.33;;;;;;;;;;10317463;28;20213;-66
2020/12/14 06:48:04;;;;;;;11.63;5.80;;;;;;;;;;10322717;28;20770;-65
2020/12/14 06:53:21;;;;;;;12.70;5.77;;;;;;;;;;10334058;28;20256;-66
2020/12/14 06:58:37;;;;;;;11.50;5.80;;;;;;;;;;10318484;28;20690;-67
2020/12/14 07:03:39;;;;;;;11.07;6.00;;;;;;;;;;10321630;28;20240;-66
2020/12/14 07:08:41;;;;;;;12.97;5.90;;;;;;;;;;10320737;28;20225;-66
2020/12/14 07:13:43;;;;;;;9.73;5.80;;;;;;;;;;10313494;28;20232;-67
2020/12/14 07:18:47;;;;;;;9.30;6.10;;;;;;;;;;10326361;28;20218;-66
2020/12/14 07:23:51;;;;;;;11.87;6.17;;;;;;;;;;10316099;28;21180;-67
2020/12/14 07:28:54;;;;;;;13.63;6.93;;;;;;;;;;10315274;28;20222;-67
2020/12/14 07:33:56;;;;;;;11.73;6.50;;;;;;;;;;10320671;28;20245;-66
2020/12/14 07:38:59;;;;;;;9.90;6.90;;;;;;;;;;10322184;28;20698;-66
2020/12/14 07:44:03;;;;;;;10.83;6.70;;;;;;;;;;10333837;28;20225;-65
2020/12/14 07:49:06;;;;;;;15.73;6.37;;;;;;;;;;10318142;28;20245;-66
2020/12/14 07:54:09;;;;;;;10.43;6.63;;;;;;;;;;10321661;28;20248;-68
2020/12/14 07:59:18;;;;;;;10.27;6.50;;;;;;;;;;10323911;28;20218;-67
2020/12/14 08:04:20;;;;;;;10.23;6.97;;;;;;;;;;10329865;28;20265;-67
2020/12/14 08:09:23;;;;;;;12.30;7.50;;;;;;;;;;10313558;28;20683;-67
2020/12/14 08:14:26;;;;;;;11.60;6.80;;;;;;;;;;10320305;28;20252;-67
2020/12/14 08:19:34;;;;;;;18.00;7.20;;;;;;;;;;10311123;28;20246;-66
2020/12/14 08:24:37;;;;;;;16.93;7.47;;;;;;;;;;10327777;28;20221;-66
2020/12/14 08:29:50;;;;;;;10.67;7.00;;;;;;;;;;10324062;28;20209;-66
2020/12/14 08:34:52;;;;;;;12.63;6.63;;;;;;;;;;10323918;28;20237;-67
2020/12/14 08:40:03;;;;;;;12.37;6.97;;;;;;;;;;10304702;28;20229;-70
2020/12/14 08:45:07;;;;;;;15.33;6.70;;;;;;;;;;10310962;28;20216;-70
2020/12/14 08:50:10;;;;;;;12.23;6.53;;;;;;;;;;10298625;28;20213;-71
2020/12/14 08:55:12;;;;;;;13.93;6.50;;;;;;;;;;10313802;28;20259;-70
2020/12/14 09:00:15;;;;;;;15.37;6.47;;;;;;;;;;10302962;28;20221;-69
2020/12/14 09:05:17;;;;;;;10.37;6.10;;;;;;;;;;10310130;28;20254;-69
2020/12/14 09:10:22;;;;;;;10.10;5.87;;;;;;;;;;10313930;28;20217;-69
2020/12/14 09:15:25;;;;;;;8.10;5.83;;;;;;;;;;10312404;28;20244;-69
2020/12/14 09:20:26;;;;;;;10.80;5.93;;;;;;;;;;10307805;28;20893;-70
2020/12/14 09:25:28;;;;;;;9.10;6.03;;;;;;;;;;10310819;28;20209;-70
2020/12/14 09:30:31;;;;;;;11.37;5.60;;;;;;;;;;10306542;28;20605;-68
2020/12/14 09:35:33;;;;;;;10.30;5.37;;;;;;;;;;10314831;28;20237;-70
2020/12/14 09:40:35;;;;;;;9.77;5.63;;;;;;;;;;10319745;28;20209;-70
2020/12/14 09:45:37;;;;;;;12.27;5.47;;;;;;;;;;10317771;28;20213;-69
2020/12/14 09:50:39;;;;;;;9.17;5.03;;;;;;;;;;10319275;28;20246;-69
2020/12/14 09:55:42;;;;;;;7.63;5.00;;;;;;;;;;10303602;28;20249;-69
2020/12/14 10:00:45;;;;;;;6.87;4.80;;;;;;;;;;10328266;28;20217;-68
2020/12/14 10:05:47;;;;;;;7.17;4.60;;;;;;;;;;10313116;28;20294;-68
2020/12/14 10:10:51;;;;;;;6.93;5.00;;;;;;;;;;10311439;28;20750;-68
2020/12/14 10:15:54;;;;;;;9.27;4.83;;;;;;;;;;10313915;28;20734;-68
2020/12/14 10:20:56;;;;;;;9.43;4.60;;;;;;;;;;10314968;28;20213;-68
2020/12/14 10:25:58;;;;;;;8.07;4.77;;;;;;;;;;10315249;28;20209;-68
2020/12/14 10:31:00;;;;;;;9.37;4.20;;;;;;;;;;10315012;28;20225;-68
2020/12/14 10:36:06;;;;;;;6.57;4.40;;;;;;;;;;10315590;28;20237;-68
2020/12/14 10:41:08;;;;;;;8.13;4.53;;;;;;;;;;10315776;28;20217;-69
2020/12/14 10:46:10;;;;;;;8.70;4.20;;;;;;;;;;10308495;28;20526;-69
2020/12/14 10:51:13;;;;;;;9.53;4.20;;;;;;;;;;10311955;28;20671;-69
2020/12/14 10:56:15;;;;;;;7.23;4.60;;;;;;;;;;10317449;28;20236;-68
2020/12/14 11:01:17;;;;;;;7.27;4.40;;;;;;;;;;10313436;28;20216;-68
2020/12/14 11:06:19;;;;;;;10.13;4.30;;;;;;;;;;10318593;28;20640;-68
2020/12/14 11:11:21;;;;;;;11.80;4.57;;;;;;;;;;10313851;28;20230;-68
2020/12/14 11:16:24;;;;;;;7.83;4.10;;;;;;;;;;10308812;28;21199;-68
2020/12/14 11:21:26;;;;;;;10.47;4.70;;;;;;;;;;10313378;28;20209;-68
2020/12/14 11:26:29;;;;;;;8.83;4.50;;;;;;;;;;10328553;28;20221;-68
2020/12/14 11:31:32;;;;;;;7.07;4.30;;;;;;;;;;10318084;28;20228;-68
2020/12/14 11:36:34;;;;;;;10.00;4.37;;;;;;;;;;10313646;28;20248;-68
2020/12/14 11:41:35;;;;;;;7.30;4.43;;;;;;;;;;10305338;28;20213;-67
2020/12/14 11:46:38;;;;;;;10.17;4.70;;;;;;;;;;10311710;28;20214;-69
2020/12/14 11:51:40;;;;;;;8.57;4.40;;;;;;;;;;10324522;28;20651;-69
2020/12/14 11:56:44;;;;;;;10.27;5.00;;;;;;;;;;10308166;28;20913;-69
2020/12/14 12:01:46;;;;;;;10.37;5.07;;;;;;;;;;10322487;28;20255;-69
2020/12/14 12:06:49;;;;;;;8.53;5.20;;;;;;;;;;10317140;28;20229;-69
2020/12/14 12:12:06;;;;;;;9.40;4.90;;;;;;;;;;10309754;28;20713;-69
2020/12/14 12:17:09;;;;;;;14.00;4.60;;;;;;;;;;10305033;28;20762;-68
2020/12/14 12:22:11;;;;;;;10.67;4.73;;;;;;;;;;10321439;28;20214;-70
2020/12/14 12:27:13;;;;;;;26.93;12.43;;;;;;;;;;10309246;28;20313;-70
2020/12/14 12:32:16;;;;;;;24.33;10.30;;;;;;;;;;10317381;28;20213;-70
2020/12/14 12:37:18;;;;;;;17.03;8.23;;;;;;;;;;10315367;28;20308;-68
2020/12/14 12:42:19;;;;;;;15.20;6.13;;;;;;;;;;10315575;28;20767;-69
2020/12/14 12:47:22;;;;;;;14.83;4.77;;;;;;;;;;10315503;28;20221;-69
2020/12/14 12:52:24;;;;;;;11.37;5.23;;;;;;;;;;10304657;28;20587;-68
2020/12/14 12:57:26;;;;;;;13.53;5.97;;;;;;;;;;10313605;28;20666;-67
2020/12/14 13:02:30;;;;;;;16.80;7.73;;;;;;;;;;10311960;28;20254;-71
2020/12/14 13:07:32;;;;;;;12.73;5.40;;;;;;;;;;10315782;28;20229;-69
2020/12/14 13:12:33;;;;;;;10.73;5.63;;;;;;;;;;10312310;28;20226;-69
2020/12/14 13:17:36;;;;;;;10.57;5.27;;;;;;;;;;10315111;28;20886;-69
2020/12/14 13:22:38;;;;;;;9.90;5.90;;;;;;;;;;10318418;28;20217;-69
2020/12/14 13:27:40;;;;;;;10.37;5.40;;;;;;;;;;10317447;28;20222;-69
2020/12/14 13:32:43;;;;;;;11.33;5.70;;;;;;;;;;10312803;28;20224;-69
2020/12/14 13:37:46;;;;;;;17.23;5.97;;;;;;;;;;10307001;28;20213;-69
2020/12/14 13:42:49;;;;;;;14.63;5.50;;;;;;;;;;10311669;28;20909;-68
2020/12/14 13:47:54;;;;;;;10.30;5.07;;;;;;;;;;10310038;28;20209;-70
2020/12/14 13:52:56;;;;;;;13.07;5.17;;;;;;;;;;10326152;28;20267;-69
2020/12/14 13:57:58;;;;;;;9.60;4.90;;;;;;;;;;10315854;28;20212;-69
2020/12/14 14:03:00;;;;;;;17.97;4.80;;;;;;;;;;10318322;28;20237;-68
2020/12/14 14:08:03;;;;;;;12.87;4.50;;;;;;;;;;10314993;28;20209;-70
2020/12/14 14:13:05;;;;;;;12.37;4.90;;;;;;;;;;10313668;28;20244;-69
2020/12/14 14:18:09;;;;;;;11.27;4.67;;;;;;;;;;10316023;28;20217;-69
2020/12/14 14:23:11;;;;;;;13.97;4.70;;;;;;;;;;10315014;28;20228;-69
2020/12/14 14:28:15;;;;;;;12.63;4.20;;;;;;;;;;10319216;28;20218;-68
2020/12/14 14:33:18;;;;;;;12.73;4.30;;;;;;;;;;10315954;28;20234;-68
2020/12/14 14:38:19;;;;;;;9.23;4.30;;;;;;;;;;10301588;28;20220;-69
2020/12/14 14:43:22;;;;;;;8.63;3.63;;;;;;;;;;10299361;28;20213;-68
2020/12/14 14:48:25;;;;;;;20.33;4.00;;;;;;;;;;10300572;28;20214;-67
2020/12/14 14:53:28;;;;;;;9.40;3.70;;;;;;;;;;10304837;28;20245;-68
2020/12/14 14:58:30;;;;;;;14.57;4.33;;;;;;;;;;10299779;28;20287;-68
2020/12/14 15:03:33;;;;;;;9.47;3.30;;;;;;;;;;10312910;28;20237;-68
2020/12/14 15:08:35;;;;;;;7.13;3.47;;;;;;;;;;10304168;28;20241;-68
2020/12/14 15:13:37;;;;;;;11.53;4.23;;;;;;;;;;10309332;28;20237;-68
2020/12/14 15:18:40;;;;;;;15.67;4.43;;;;;;;;;;10302224;28;20213;-70
2020/12/14 15:23:43;;;;;;;15.30;4.33;;;;;;;;;;10315474;28;20219;-69
2020/12/14 15:28:48;;;;;;;14.37;4.20;;;;;;;;;;10309333;28;20622;-66
2020/12/14 15:33:53;;;;;;;9.17;3.80;;;;;;;;;;10308431;28;20237;-67
2020/12/14 15:38:55;;;;;;;15.53;3.57;;;;;;;;;;10307520;28;20209;-70
2020/12/14 15:44:00;;;;;;;7.90;3.07;;;;;;;;;;10312120;28;20214;-70
2020/12/14 15:49:02;;;;;;;13.23;3.97;;;;;;;;;;10306872;28;20217;-69
2020/12/14 15:54:04;;;;;;;13.60;3.50;;;;;;;;;;10300893;28;20248;-70
2020/12/14 15:59:08;;;;;;;12.73;3.47;;;;;;;;;;10302878;28;20217;-71
2020/12/14 16:04:11;;;;;;;12.53;3.80;;;;;;;;;;10305443;28;20250;-70
2020/12/14 16:09:15;;;;;;;14.60;3.90;;;;;;;;;;10306987;28;20230;-70
2020/12/14 16:14:19;;;;;;;10.03;3.77;;;;;;;;;;10307087;28;20335;-69
2020/12/14 16:19:22;;;;;;;9.77;4.20;;;;;;;;;;10307300;28;20222;-70
2020/12/14 16:24:23;;;;;;;10.30;3.90;;;;;;;;;;10311852;28;20213;-72
2020/12/14 16:29:27;;;;;;;10.57;4.33;;;;;;;;;;10310712;28;20216;-70
2020/12/14 16:34:31;;;;;;;14.87;4.50;;;;;;;;;;10309581;28;20361;-69
2020/12/14 16:39:33;;;;;;;14.07;4.37;;;;;;;;;;10320201;28;20213;-69
2020/12/14 16:44:35;;;;;;;10.70;4.30;;;;;;;;;;10318222;28;20221;-69
2020/12/14 16:49:37;;;;;;;8.60;4.63;;;;;;;;;;10325154;28;20225;-71
2020/12/14 16:54:39;;;;;;;16.43;5.40;;;;;;;;;;10312120;28;20241;-70
2020/12/14 16:59:41;;;;;;;13.13;5.30;;;;;;;;;;10316108;28;20221;-70
2020/12/14 17:04:56;;;;;;;13.60;5.50;;;;;;;;;;10311770;28;20244;-70
2020/12/14 17:09:58;;;;;;;11.50;5.77;;;;;;;;;;10314051;28;20224;-70
2020/12/14 17:15:00;;;;;;;14.83;5.63;;;;;;;;;;10319309;28;20241;-71
2020/12/14 17:20:05;;;;;;;11.20;5.70;;;;;;;;;;10320150;28;20228;-71
2020/12/14 17:25:07;;;;;;;14.70;5.67;;;;;;;;;;10309265;28;20217;-71
2020/12/14 17:30:09;;;;;;;15.50;5.90;;;;;;;;;;10313643;28;20248;-74
2020/12/14 17:35:11;;;;;;;15.17;5.57;;;;;;;;;;10307280;28;20252;-73
2020/12/14 17:40:14;;;;;;;15.60;5.63;;;;;;;;;;10319817;28;20221;-75
2020/12/14 17:45:15;;;;;;;12.80;5.67;;;;;;;;;;10314597;28;20712;-72
2020/12/14 17:50:18;;;;;;;17.63;6.13;;;;;;;;;;10313330;28;20220;-72
2020/12/14 17:55:20;;;;;;;11.40;5.13;;;;;;;;;;10322210;28;20242;-71
2020/12/14 18:00:22;;;;;;;13.15;5.53;;;;;;;;;;10304206;28;20490;-70
2020/12/14 18:05:25;;;;;;;11.30;5.50;;;;;;;;;;10324262;28;20252;-71
2020/12/14 18:10:27;;;;;;;12.67;5.20;;;;;;;;;;10325610;28;20236;-70
2020/12/14 18:15:29;;;;;;;10.10;4.80;;;;;;;;;;10321510;28;20232;-70
2020/12/14 18:20:37;;;;;;;18.90;4.77;;;;;;;;;;10318566;28;20209;-70
2020/12/14 18:25:39;;;;;;;9.20;4.90;;;;;;;;;;10314089;28;20210;-71
2020/12/14 18:30:42;;;;;;;13.07;4.83;;;;;;;;;;10313459;28;20223;-71
2020/12/14 21:27:48;;;;;;;19.93;10.43;;;;;;;;;;10485062;28;20225;-71
2020/12/14 21:32:51;;;;;;;18.20;10.23;;;;;;;;;;10491984;28;20221;-71
2020/12/14 21:37:53;;;;;;;16.97;9.30;;;;;;;;;;10487264;28;20240;-71
2020/12/14 21:42:54;;;;;;;17.37;8.83;;;;;;;;;;10492082;28;20786;-71
2020/12/14 21:47:57;;;;;;;19.10;9.90;;;;;;;;;;10500858;28;20218;-71
2020/12/14 21:52:59;;;;;;;17.80;9.37;;;;;;;;;;10486234;28;20267;-69
2020/12/14 21:58:02;;;;;;;17.60;9.57;;;;;;;;;;10485126;28;20256;-70
2020/12/14 22:03:05;;;;;;;19.67;10.30;;;;;;;;;;10440453;28;20814;-70
2020/12/14 22:08:06;;;;;;;18.50;8.97;;;;;;;;;;10323407;28;20225;-71
2020/12/14 22:13:08;;;;;;;18.83;9.30;;;;;;;;;;10316607;28;20688;-70
2020/12/14 22:18:11;;;;;;;20.57;8.77;;;;;;;;;;10318638;28;20278;-70
2020/12/14 22:23:13;;;;;;;16.03;9.83;;;;;;;;;;10319547;28;20221;-69
2020/12/14 22:28:15;;;;;;;19.13;9.73;;;;;;;;;;10314583;28;20213;-70
2020/12/14 22:33:18;;;;;;;18.47;9.30;;;;;;;;;;10317902;28;20205;-70
2020/12/14 22:38:19;;;;;;;17.27;9.00;;;;;;;;;;10330885;28;20241;-70
2020/12/14 22:43:21;;;;;;;20.27;8.83;;;;;;;;;;10311014;28;20220;-69
2020/12/14 22:48:24;;;;;;;20.03;9.33;;;;;;;;;;10323206;28;20224;-69
2020/12/14 22:53:26;;;;;;;22.83;9.40;;;;;;;;;;10318049;28;20213;-70
2020/12/14 22:58:29;;;;;;;16.00;9.00;;;;;;;;;;10315684;28;20242;-70
2020/12/14 23:03:32;;;;;;;17.00;8.97;;;;;;;;;;10315149;28;20245;-71
2020/12/14 23:08:35;;;;;;;19.57;8.57;;;;;;;;;;10317580;28;20605;-71
2020/12/14 23:13:39;;;;;;;20.07;8.67;;;;;;;;;;10315376;28;20358;-71
2020/12/14 23:18:42;;;;;;;15.63;7.50;;;;;;;;;;10320849;28;20218;-71
2020/12/14 23:23:44;;;;;;;12.43;7.27;;;;;;;;;;10319405;28;20298;-71
2020/12/14 23:28:46;;;;;;;16.57;7.57;;;;;;;;;;10311256;28;20683;-71
2020/12/14 23:33:49;;;;;;;11.77;6.80;;;;;;;;;;10314233;28;20279;-71
2020/12/14 23:38:51;;;;;;;11.47;6.30;;;;;;;;;;10335725;28;20213;-71
2020/12/14 23:43:53;;;;;;;10.53;5.90;;;;;;;;;;10328958;28;20683;-71
2020/12/14 23:48:56;;;;;;;12.60;5.97;;;;;;;;;;10314125;28;20788;-70
2020/12/14 23:53:58;;;;;;;10.70;5.70;;;;;;;;;;10321421;28;20685;-71
2020/12/14 23:59:00;;;;;;;12.40;6.10;;;;;;;;;;10317902;28;20223;-71
